Time;durP1;ratioP1;P1;durP2;ratioP2;P2;SDS_P1;SDS_P2;PMS_P1;PMS_P2;Temp;Humidity;BMP_temperature;BMP_pressure;BME280_temperature;BME280_humidity;BME280_pressure;Samples;Min_cycle;Max_cycle;Signal;HPM_P1;HPM_P2
2022/10/09 00:01:31;;;;;;;7.60;2.40;;;;;;;7.42;89.23;101775.77;105215;1289;58865;-76
2022/10/09 00:03:58;;;;;;;6.90;2.70;;;;;;;7.38;88.96;101773.65;105134;1294;73269;-76
2022/10/09 00:06:31;;;;;;;7.00;2.00;;;;;;;7.32;89.01;101776.00;105034;1300;70960;-76
2022/10/09 00:08:59;;;;;;;6.60;1.80;;;;;;;7.28;89.01;101775.14;105051;1297;71171;-77
2022/10/09 00:11:27;;;;;;;4.60;2.10;;;;;;;7.23;89.13;101777.31;105185;1289;60102;-76
2022/10/09 00:13:55;;;;;;;7.00;2.10;;;;;;;7.19;89.23;101776.43;105105;1297;60322;-77
2022/10/09 00:16:23;;;;;;;6.90;2.00;;;;;;;7.15;89.49;101772.55;105055;1294;75246;-76
2022/10/09 00:18:51;;;;;;;4.90;2.00;;;;;;;7.13;89.45;101773.59;105102;1299;69716;-76
2022/10/09 00:21:19;;;;;;;7.10;1.90;;;;;;;7.10;89.61;101778.45;105216;1290;71597;-77
2022/10/09 00:23:50;;;;;;;6.00;2.30;;;;;;;7.05;89.71;101782.16;105278;1294;60011;-77
2022/10/09 00:26:17;;;;;;;7.00;2.20;;;;;;;7.03;89.52;101788.48;105254;1287;59172;-76
2022/10/09 00:28:45;;;;;;;7.20;2.30;;;;;;;6.99;89.68;101787.77;105177;1303;74478;-77
2022/10/09 00:31:12;;;;;;;7.80;2.30;;;;;;;6.96;89.57;101789.93;105183;1293;70552;-76
2022/10/09 00:33:39;;;;;;;5.40;2.10;;;;;;;6.94;89.76;101793.08;105103;1292;70874;-77
2022/10/09 00:36:09;;;;;;;8.40;2.10;;;;;;;6.91;89.74;101788.02;105155;1292;59136;-76
2022/10/09 00:38:35;;;;;;;7.10;2.30;;;;;;;6.88;89.94;101788.25;105204;1290;59466;-76
2022/10/09 00:41:02;;;;;;;7.20;2.20;;;;;;;6.86;90.20;101790.39;105209;1297;74286;-76
2022/10/09 00:43:40;;;;;;;7.30;2.70;;;;;;;6.84;90.29;101790.40;105278;1294;70762;-75
2022/10/09 00:46:15;;;;;;;6.10;2.10;;;;;;;6.82;90.26;101791.43;105178;1297;72504;-76
2022/10/09 00:48:43;;;;;;;7.60;2.30;;;;;;;6.79;90.21;101792.48;105195;1296;60929;-76
2022/10/09 00:51:09;;;;;;;6.00;2.10;;;;;;;6.77;90.30;101796.40;105258;1297;59618;-76
2022/10/09 00:53:36;;;;;;;8.90;2.20;;;;;;;6.74;90.21;101794.29;105068;1296;59181;-76
2022/10/09 00:56:03;;;;;;;8.90;2.20;;;;;;;6.71;90.15;101797.52;105229;1297;59251;-76
2022/10/09 00:58:29;;;;;;;8.90;2.60;;;;;;;6.69;90.17;101796.52;105209;1297;72508;-75
2022/10/09 01:00:55;;;;;;;8.10;2.60;;;;;;;6.66;90.62;101799.02;105273;1283;59073;-76
2022/10/09 01:03:22;;;;;;;6.60;2.40;;;;;;;6.65;90.85;101799.11;105284;1290;59819;-76
2022/10/09 01:06:13;;;;;;;10.00;2.50;;;;;;;6.65;90.89;101800.33;105198;1297;58883;-76
2022/10/09 01:09:00;;;;;;;11.40;2.60;;;;;;;6.64;90.81;101801.42;105154;1289;69441;-76
2022/10/09 01:11:32;;;;;;;8.30;2.60;;;;;;;6.62;90.99;101800.35;105202;1297;71459;-76
2022/10/09 01:14:08;;;;;;;7.80;2.80;;;;;;;6.61;91.00;101802.55;105236;1289;60425;-76
2022/10/09 01:16:40;;;;;;;8.20;2.60;;;;;;;6.60;91.02;101800.93;105045;1297;60202;-76
2022/10/09 01:19:28;;;;;;;8.50;2.50;;;;;;;6.58;91.16;101800.16;105090;1285;73739;-77
2022/10/09 01:22:12;;;;;;;12.10;2.60;;;;;;;6.57;91.35;101798.48;105188;1304;70174;-77
2022/10/09 01:24:53;;;;;;;7.70;2.50;;;;;;;6.56;91.78;101798.23;105203;1288;72548;-77
2022/10/09 01:27:24;;;;;;;6.60;2.30;;;;;;;6.56;92.06;101801.05;105041;1300;59687;-76
2022/10/09 01:29:55;;;;;;;9.70;2.70;;;;;;;6.56;92.31;101804.89;105080;1286;59642;-76
2022/10/09 01:32:27;;;;;;;8.50;2.80;;;;;;;6.56;92.88;101806.33;105084;1297;74009;-76
2022/10/09 01:34:54;;;;;;;10.60;2.60;;;;;;;6.57;92.91;101811.14;105067;1299;70299;-76
2022/10/09 01:37:22;;;;;;;8.30;2.80;;;;;;;6.58;92.78;101811.58;105120;1289;71083;-76
2022/10/09 01:39:50;;;;;;;10.00;2.70;;;;;;;6.59;92.99;101810.11;105126;1281;60044;-76
2022/10/09 01:42:19;;;;;;;8.80;2.60;;;;;;;6.61;93.15;101811.58;105053;1300;60816;-77
2022/10/09 01:44:45;;;;;;;9.40;2.70;;;;;;;6.60;93.12;101809.13;105116;1297;74844;-76
2022/10/09 01:47:15;;;;;;;12.20;2.40;;;;;;;6.60;93.32;101808.10;105260;1297;59121;-76
2022/10/09 01:49:51;;;;;;;10.10;2.70;;;;;;;6.60;93.06;101808.31;105164;1299;70287;-77
2022/10/09 01:52:23;;;;;;;8.00;2.40;;;;;;;6.60;93.25;101809.17;105238;1297;60189;-76
2022/10/09 01:55:01;;;;;;;7.50;2.40;;;;;;;6.60;93.20;101806.49;105245;1297;59155;-77
2022/10/09 01:57:42;;;;;;;8.20;2.50;;;;;;;6.60;93.06;101807.71;105166;1295;74496;-76
2022/10/09 02:00:12;;;;;;;13.20;2.90;;;;;;;6.59;93.09;101804.65;105269;1297;68716;-76
2022/10/09 02:02:41;;;;;;;10.90;2.80;;;;;;;6.58;93.00;101803.71;105150;1296;72473;-77
2022/10/09 02:05:11;;;;;;;11.10;2.40;;;;;;;6.55;93.01;101803.58;105143;1291;60957;-76
2022/10/09 02:07:38;;;;;;;9.20;2.70;;;;;;;6.52;93.33;101801.80;105007;1299;61456;-76
2022/10/09 02:10:07;;;;;;;10.60;2.70;;;;;;;6.50;93.23;101797.98;105149;1297;74890;-76
2022/10/09 02:12:37;;;;;;;10.60;2.70;;;;;;;6.47;93.21;101795.74;105201;1290;69576;-76
2022/10/09 02:15:05;;;;;;;8.00;3.00;;;;;;;6.45;93.27;101794.86;105166;1297;71858;-76
2022/10/09 02:17:35;;;;;;;7.80;2.70;;;;;;;6.43;93.48;101799.96;105171;1290;59651;-76
2022/10/09 02:20:11;;;;;;;10.70;3.00;;;;;;;6.40;93.96;101799.33;105103;1296;59343;-76
2022/10/09 02:22:37;;;;;;;6.60;2.70;;;;;;;6.38;93.86;101798.77;105168;1297;74275;-76
2022/10/09 02:25:05;;;;;;;12.50;3.30;;;;;;;6.36;93.90;101799.08;105283;1290;59928;-76
2022/10/09 02:27:32;;;;;;;8.20;3.00;;;;;;;6.34;93.76;101799.56;105115;1290;71801;-76
2022/10/09 02:30:00;;;;;;;13.00;3.40;;;;;;;6.33;93.87;101797.52;105110;1297;59611;-76
2022/10/09 02:32:27;;;;;;;5.30;2.60;;;;;;;6.32;93.93;101798.98;105032;1290;60649;-76
2022/10/09 02:34:54;;;;;;;6.80;2.70;;;;;;;6.31;93.92;101800.14;105020;1290;74675;-76
2022/10/09 02:37:20;;;;;;;12.10;3.60;;;;;;;6.30;93.72;101801.64;105169;1297;59479;-76
2022/10/09 02:39:48;;;;;;;9.10;3.40;;;;;;;6.29;93.72;101803.52;105184;1295;58966;-76
2022/10/09 02:42:14;;;;;;;8.30;3.50;;;;;;;6.27;93.76;101805.61;105146;1283;59735;-77
2022/10/09 02:44:41;;;;;;;14.10;3.70;;;;;;;6.25;93.69;101808.55;105235;1297;59436;-76
2022/10/09 02:47:07;;;;;;;9.50;3.40;;;;;;;6.23;93.76;101807.63;105064;1283;74791;-77
2022/10/09 02:49:34;;;;;;;9.30;3.40;;;;;;;6.21;93.66;101807.31;105165;1297;70897;-76
2022/10/09 02:52:00;;;;;;;12.60;3.30;;;;;;;6.18;93.86;101808.20;105110;1289;59087;-76
2022/10/09 02:54:27;;;;;;;6.80;3.20;;;;;;;6.17;93.77;101807.27;105175;1289;59417;-76
2022/10/09 02:56:53;;;;;;;11.80;3.80;;;;;;;6.16;93.82;101811.91;105255;1293;59247;-76
2022/10/09 02:59:20;;;;;;;11.80;3.40;;;;;;;6.14;93.90;101806.60;105162;1289;59829;-76
2022/10/09 03:02:07;;;;;;;8.80;3.70;;;;;;;6.12;94.26;101810.91;104878;1292;59343;-74
2022/10/09 03:04:33;;;;;;;12.60;3.70;;;;;;;6.11;94.70;101807.70;104992;1297;72844;-76
2022/10/09 03:07:00;;;;;;;11.80;3.80;;;;;;;6.10;94.79;101811.29;105155;1291;59144;-76
2022/10/09 03:09:27;;;;;;;13.50;3.80;;;;;;;6.10;94.83;101805.33;105174;1297;59346;-77
2022/10/09 03:11:59;;;;;;;12.80;3.80;;;;;;;6.10;94.87;101805.14;105064;1297;73208;-76
2022/10/09 03:14:25;;;;;;;10.40;3.70;;;;;;;6.10;94.98;101806.72;105174;1296;59722;-77
2022/10/09 03:16:51;;;;;;;12.10;3.80;;;;;;;6.10;95.33;101806.02;105146;1289;58995;-77
2022/10/09 03:19:18;;;;;;;9.10;3.50;;;;;;;6.10;95.26;101809.34;105254;1289;59114;-76
2022/10/09 03:21:44;;;;;;;13.30;3.80;;;;;;;6.11;95.41;101809.20;105273;1294;59376;-76
2022/10/09 03:24:11;;;;;;;9.70;4.00;;;;;;;6.12;95.62;101807.80;105142;1297;60618;-76
2022/10/09 03:26:37;;;;;;;11.80;3.70;;;;;;;6.13;95.81;101807.48;105128;1296;59654;-76
2022/10/09 03:29:04;;;;;;;8.50;3.40;;;;;;;6.16;95.83;101805.59;105233;1299;60218;-77
2022/10/09 03:31:30;;;;;;;9.50;3.90;;;;;;;6.17;95.57;101808.11;105167;1298;59762;-76
2022/10/09 03:34:16;;;;;;;6.40;3.30;;;;;;;6.17;95.46;101812.68;105284;1297;61103;-76
2022/10/09 03:36:43;;;;;;;10.60;3.60;;;;;;;6.17;95.47;101810.96;105165;1297;58464;-76
2022/10/09 03:39:09;;;;;;;10.40;3.40;;;;;;;6.17;95.29;101810.72;105083;1297;59013;-76
2022/10/09 03:41:36;;;;;;;10.90;3.70;;;;;;;6.17;95.30;101810.95;105257;1297;59142;-76
2022/10/09 03:44:02;;;;;;;9.50;3.70;;;;;;;6.17;95.28;101808.83;104658;1290;697766;-76
2022/10/09 03:46:29;;;;;;;9.20;3.50;;;;;;;6.18;95.45;101810.73;105160;1294;59051;-76
2022/10/09 03:48:55;;;;;;;13.60;3.50;;;;;;;6.18;95.60;101814.38;105184;1297;58908;-76
2022/10/09 03:51:22;;;;;;;13.00;3.50;;;;;;;6.17;95.43;101811.27;105184;1296;59619;-76
2022/10/09 03:53:48;;;;;;;15.00;3.80;;;;;;;6.17;95.66;101814.41;105218;1296;59198;-76
2022/10/09 03:56:14;;;;;;;12.50;3.50;;;;;;;6.18;96.16;101812.95;105040;1298;59130;-76
2022/10/09 03:58:41;;;;;;;15.90;4.00;;;;;;;6.19;96.03;101815.35;105206;1289;59385;-76
2022/10/09 04:01:07;;;;;;;13.90;3.40;;;;;;;6.20;96.38;101814.20;105255;1297;59247;-76
2022/10/09 04:03:34;;;;;;;13.70;3.70;;;;;;;6.21;96.38;101817.42;105224;1294;59210;-76
2022/10/09 04:06:00;;;;;;;15.10;3.70;;;;;;;6.24;96.16;101820.79;105084;1295;59077;-76
2022/10/09 04:08:27;;;;;;;11.10;3.80;;;;;;;6.25;96.42;101825.03;105228;1290;58445;-76
2022/10/09 04:13:28;;;;;;;11.80;3.70;;;;;;;6.28;96.48;101822.92;105210;1287;73949;-76
2022/10/09 04:15:55;;;;;;;8.40;3.30;;;;;;;6.28;96.32;101825.17;105227;1296;59246;-76
2022/10/09 04:18:22;;;;;;;11.80;3.80;;;;;;;6.29;96.39;101827.54;105252;1297;70584;-76
2022/10/09 04:20:50;;;;;;;11.30;3.60;;;;;;;6.30;96.33;101827.49;105010;1297;61130;-76
2022/10/09 04:23:18;;;;;;;10.10;3.40;;;;;;;6.30;96.12;101829.44;105106;1300;60174;-76
2022/10/09 04:25:44;;;;;;;9.70;3.10;;;;;;;6.29;95.91;101828.23;105022;1300;74534;-76
2022/10/09 04:28:11;;;;;;;11.80;3.50;;;;;;;6.28;95.91;101830.77;104852;1301;70182;-76
2022/10/09 04:30:38;;;;;;;10.80;3.30;;;;;;;6.28;95.92;101828.86;105038;1300;71310;-76
2022/10/09 04:33:05;;;;;;;12.20;3.30;;;;;;;6.28;96.18;101828.98;105080;1293;60645;-76
2022/10/09 04:35:45;;;;;;;12.10;3.40;;;;;;;6.28;95.89;101832.50;105284;1297;58921;-76
2022/10/09 04:38:11;;;;;;;11.00;3.50;;;;;;;6.28;95.82;101830.97;105038;1297;73673;-76
2022/10/09 04:40:38;;;;;;;12.80;3.30;;;;;;;6.27;95.67;101838.23;105211;1289;59374;-76
2022/10/09 04:43:05;;;;;;;11.50;3.40;;;;;;;6.26;95.77;101837.24;105277;1297;59532;-76
2022/10/09 04:45:31;;;;;;;9.90;3.50;;;;;;;6.27;96.04;101838.47;105161;1292;62549;-76
2022/10/09 04:47:58;;;;;;;9.80;3.30;;;;;;;6.26;96.00;101840.59;105278;1290;60884;-76
2022/10/09 04:50:24;;;;;;;10.50;3.40;;;;;;;6.26;96.02;101839.60;105123;1298;74696;-76
2022/10/09 04:52:51;;;;;;;10.00;3.10;;;;;;;6.25;96.05;101838.23;105265;1296;59113;-76
2022/10/09 04:55:17;;;;;;;13.20;3.40;;;;;;;6.24;95.95;101843.02;105265;1297;59091;-76
2022/10/09 04:57:44;;;;;;;10.70;3.70;;;;;;;6.24;96.19;101838.64;105124;1292;60486;-76
2022/10/09 05:00:11;;;;;;;10.00;3.30;;;;;;;6.24;96.03;101837.27;105051;1290;59118;-76
2022/10/09 05:02:38;;;;;;;11.10;3.20;;;;;;;6.23;96.00;101839.11;105114;1283;73151;-76
2022/10/09 05:05:04;;;;;;;11.20;3.70;;;;;;;6.22;96.11;101839.35;105252;1290;70910;-76
2022/10/09 05:07:31;;;;;;;11.70;3.40;;;;;;;6.21;96.21;101842.94;105152;1289;72416;-76
2022/10/09 05:09:57;;;;;;;12.20;3.30;;;;;;;6.20;96.26;101841.29;105333;1297;59187;-76
2022/10/09 05:12:24;;;;;;;10.80;4.20;;;;;;;6.19;96.21;101840.45;105414;1293;59378;-76
2022/10/09 05:14:50;;;;;;;14.50;3.80;;;;;;;6.19;96.49;101843.11;105232;1289;59142;-76
2022/10/09 05:17:19;;;;;;;12.60;3.90;;;;;;;6.19;96.72;101845.36;105371;1293;68766;-76
2022/10/09 05:19:49;;;;;;;14.30;3.60;;;;;;;6.19;96.72;101844.30;105274;1295;72887;-76
2022/10/09 05:22:15;;;;;;;12.90;3.50;;;;;;;6.20;96.71;101846.86;105303;1296;59263;-76
2022/10/09 05:24:41;;;;;;;15.40;3.60;;;;;;;6.22;96.64;101847.27;105355;1293;58779;-76
2022/10/09 05:27:08;;;;;;;9.00;3.50;;;;;;;6.22;96.55;101847.25;105336;1288;59016;-76
2022/10/09 05:29:34;;;;;;;11.10;3.70;;;;;;;6.20;96.41;101844.92;105386;1297;59525;-76
2022/10/09 05:32:01;;;;;;;12.50;3.90;;;;;;;6.18;96.16;101847.75;105244;1290;59189;-76
2022/10/09 05:34:28;;;;;;;10.00;3.50;;;;;;;6.17;96.21;101847.44;105216;1293;62260;-77
2022/10/09 05:36:54;;;;;;;11.10;3.40;;;;;;;6.16;96.29;101849.47;105319;1293;58893;-76
2022/10/09 05:39:21;;;;;;;10.60;3.10;;;;;;;6.15;96.27;101851.29;105256;1297;59009;-76
2022/10/09 05:41:47;;;;;;;10.70;3.60;;;;;;;6.15;96.25;101848.52;105286;1297;59487;-77
2022/10/09 05:44:14;;;;;;;11.30;3.50;;;;;;;6.16;96.35;101849.14;105333;1287;59467;-77
2022/10/09 05:46:40;;;;;;;10.10;3.60;;;;;;;6.17;96.39;101850.46;105280;1290;60534;-77
2022/10/09 05:49:09;;;;;;;14.20;3.60;;;;;;;6.17;96.27;101852.04;105279;1296;59017;-76
2022/10/09 05:51:37;;;;;;;10.80;3.70;;;;;;;6.19;96.21;101849.96;105167;1297;74898;-77
2022/10/09 05:54:05;;;;;;;10.50;3.70;;;;;;;6.21;96.37;101848.20;105179;1297;71324;-77
2022/10/09 05:56:34;;;;;;;10.00;4.00;;;;;;;6.24;96.34;101848.17;105174;1290;72572;-77
2022/10/09 05:59:06;;;;;;;10.40;4.20;;;;;;;6.27;96.79;101849.46;105233;1297;60788;-77
2022/10/09 06:01:36;;;;;;;13.50;4.20;;;;;;;6.31;96.93;101850.55;105263;1292;59531;-77
2022/10/09 06:04:03;;;;;;;12.80;4.00;;;;;;;6.36;96.80;101855.11;105215;1287;73435;-76
2022/10/09 06:06:32;;;;;;;12.60;4.10;;;;;;;6.41;97.04;101852.61;105021;1284;71058;-76
2022/10/09 06:08:58;;;;;;;10.80;3.90;;;;;;;6.45;96.69;101853.17;105167;1289;72385;-76
2022/10/09 06:11:30;;;;;;;11.80;4.60;;;;;;;6.51;97.04;101855.17;105171;1289;58944;-77
2022/10/09 06:13:58;;;;;;;13.80;4.50;;;;;;;6.58;97.13;101855.02;105310;1296;59323;-77
2022/10/09 06:16:28;;;;;;;12.90;4.30;;;;;;;6.65;96.93;101857.27;105064;1299;73346;-77
2022/10/09 06:18:55;;;;;;;9.00;4.40;;;;;;;6.71;97.01;101858.19;105218;1297;71405;-76
2022/10/09 06:21:22;;;;;;;11.20;4.20;;;;;;;6.76;96.52;101862.91;105080;1300;72554;-77
2022/10/09 06:23:53;;;;;;;12.00;4.30;;;;;;;6.81;96.22;101863.88;105174;1296;59111;-77
2022/10/09 06:26:20;;;;;;;10.50;4.40;;;;;;;6.88;96.40;101863.82;105157;1297;59807;-77
2022/10/09 06:28:47;;;;;;;11.10;4.20;;;;;;;6.96;96.72;101864.83;105085;1297;74657;-78
2022/10/09 06:31:20;;;;;;;9.30;3.80;;;;;;;7.06;96.76;101864.23;105165;1296;70959;-77
2022/10/09 06:33:48;;;;;;;12.60;4.70;;;;;;;7.15;96.59;101868.63;105193;1297;71493;-77
2022/10/09 06:36:17;;;;;;;12.50;4.70;;;;;;;7.24;96.45;101869.58;105050;1298;61598;-77
2022/10/09 06:38:44;;;;;;;10.90;4.20;;;;;;;7.37;96.51;101872.47;105074;1293;59675;-77
2022/10/09 06:41:20;;;;;;;12.40;3.90;;;;;;;7.46;96.16;101875.05;105046;1287;75016;-77
2022/10/09 06:43:50;;;;;;;10.20;4.00;;;;;;;7.55;96.42;101870.94;105267;1297;70752;-79
2022/10/09 06:46:18;;;;;;;10.60;4.10;;;;;;;7.63;95.70;101865.17;105079;1292;71582;-79
2022/10/09 06:48:46;;;;;;;12.00;3.80;;;;;;;7.73;95.79;101861.91;105077;1298;61601;-80
2022/10/09 06:51:18;;;;;;;10.10;3.90;;;;;;;7.82;95.34;101858.23;105081;1297;59560;-80
2022/10/09 06:53:48;;;;;;;10.30;3.90;;;;;;;7.90;95.49;101859.45;105035;1292;73482;-79
2022/10/09 06:56:18;;;;;;;10.80;3.50;;;;;;;8.00;95.28;101864.25;105213;1297;71563;-79
2022/10/09 06:58:45;;;;;;;8.10;3.40;;;;;;;8.06;94.51;101863.90;104981;1293;73697;-79
2022/10/09 07:01:19;;;;;;;8.20;3.20;;;;;;;8.10;94.13;101867.09;105005;1297;61222;-78
2022/10/09 07:04:06;;;;;;;9.00;4.00;;;;;;;8.13;93.48;101867.00;104798;1305;61361;-79
2022/10/09 07:06:46;;;;;;;6.60;3.70;;;;;;;8.18;93.38;101871.88;105215;1296;73295;-79
2022/10/09 07:09:15;;;;;;;7.40;3.50;;;;;;;8.24;93.08;101876.98;105232;1297;71136;-79
2022/10/09 07:11:44;;;;;;;8.20;3.80;;;;;;;8.30;93.03;101878.61;105209;1297;71178;-79
2022/10/09 07:14:14;;;;;;;8.40;3.70;;;;;;;8.36;92.55;101876.73;105199;1297;61108;-79
2022/10/09 07:16:44;;;;;;;10.60;4.20;;;;;;;8.49;92.90;101881.42;105224;1294;60597;-79
2022/10/09 07:19:13;;;;;;;6.50;3.50;;;;;;;8.61;92.78;101878.09;105213;1297;74513;-79
2022/10/09 07:21:51;;;;;;;8.10;3.70;;;;;;;8.71;92.15;101887.51;105280;1297;70264;-80
2022/10/09 07:24:24;;;;;;;6.30;3.40;;;;;;;8.76;91.74;101893.20;105105;1292;73702;-79
2022/10/09 07:26:56;;;;;;;7.20;3.30;;;;;;;8.85;91.71;101892.60;104764;1298;61300;-77
2022/10/09 07:29:30;;;;;;;8.90;3.60;;;;;;;8.93;91.32;101902.44;104742;1279;60307;-76
2022/10/09 07:31:57;;;;;;;8.00;3.10;;;;;;;9.01;90.90;101899.17;105150;1291;59122;-76
2022/10/09 07:34:23;;;;;;;7.90;3.30;;;;;;;9.03;90.37;101898.80;104980;1299;59184;-76
2022/10/09 07:36:50;;;;;;;5.30;2.80;;;;;;;9.06;90.02;101896.09;105040;1292;59383;-76
2022/10/09 07:39:19;;;;;;;7.00;2.80;;;;;;;9.13;90.08;101898.12;105025;1299;59753;-76
2022/10/09 07:41:48;;;;;;;9.00;3.00;;;;;;;9.21;89.73;101904.98;105143;1289;59016;-76
2022/10/09 07:44:15;;;;;;;6.50;3.00;;;;;;;9.30;89.68;101904.48;105087;1293;73643;-76
2022/10/09 07:46:41;;;;;;;7.70;3.00;;;;;;;9.39;89.56;101904.41;105161;1298;59549;-75
2022/10/09 07:49:08;;;;;;;9.20;3.00;;;;;;;9.50;89.53;101906.96;105192;1297;70985;-75
2022/10/09 07:51:38;;;;;;;8.40;3.00;;;;;;;9.62;89.25;101909.77;105083;1294;60288;-75
2022/10/09 07:54:04;;;;;;;8.30;2.80;;;;;;;9.73;88.71;101910.34;105038;1299;59423;-75
2022/10/09 07:56:33;;;;;;;7.30;3.60;;;;;;;9.82;88.21;101906.74;105126;1294;73216;-75
2022/10/09 07:59:03;;;;;;;10.40;3.00;;;;;;;9.90;87.76;101904.41;105018;1299;69800;-75
2022/10/09 08:01:30;;;;;;;5.70;2.90;;;;;;;9.99;87.68;101904.36;105089;1292;72754;-76
2022/10/09 08:03:57;;;;;;;8.90;2.90;;;;;;;10.09;87.54;101902.11;105098;1282;61345;-76
2022/10/09 08:06:24;;;;;;;9.40;3.20;;;;;;;10.18;86.67;101903.38;104984;1300;59613;-76
2022/10/09 08:08:53;;;;;;;7.20;2.70;;;;;;;10.26;86.11;101902.16;104910;1299;75009;-76
2022/10/09 08:11:22;;;;;;;6.90;2.90;;;;;;;10.36;86.24;101903.93;104873;1303;69582;-76
2022/10/09 08:13:50;;;;;;;6.40;2.90;;;;;;;10.48;86.11;101899.75;105086;1296;72494;-75
2022/10/09 08:16:18;;;;;;;6.60;2.50;;;;;;;10.55;85.48;101902.30;104938;1297;60369;-75
2022/10/09 08:18:45;;;;;;;5.90;2.70;;;;;;;10.65;85.66;101901.38;104863;1300;60272;-75
2022/10/09 08:21:17;;;;;;;6.50;2.50;;;;;;;10.78;85.66;101905.99;105009;1297;73452;-75
2022/10/09 08:23:44;;;;;;;5.50;2.40;;;;;;;10.92;85.50;101906.55;104989;1300;70247;-75
2022/10/09 08:26:16;;;;;;;5.80;2.50;;;;;;;11.09;85.19;101907.43;104912;1298;71208;-75
2022/10/09 08:28:42;;;;;;;35.30;22.50;;;;;;;11.25;84.68;101909.95;104711;1299;60871;-76
2022/10/09 08:31:14;;;;;;;9.50;4.30;;;;;;;11.44;85.13;101908.84;104831;1298;59450;-75
2022/10/09 08:33:41;;;;;;;9.70;3.20;;;;;;;11.66;85.20;101914.58;104562;1299;72967;-74
2022/10/09 08:36:10;;;;;;;6.30;2.60;;;;;;;11.86;84.06;101914.25;104782;1297;68734;-76
2022/10/09 08:38:37;;;;;;;7.00;2.40;;;;;;;11.99;82.89;101905.14;104675;1299;71403;-75
2022/10/09 08:41:22;;;;;;;7.60;2.70;;;;;;;12.11;82.33;101905.30;104845;1297;60751;-74
2022/10/09 08:44:11;;;;;;;6.60;2.20;;;;;;;12.20;81.39;101902.10;104633;1302;59068;-74
2022/10/09 08:47:05;;;;;;;6.80;2.30;;;;;;;12.29;80.89;101900.52;104779;1287;73959;-75
2022/10/09 08:49:39;;;;;;;6.20;2.10;;;;;;;12.44;81.37;101900.98;104975;1304;70890;-74
2022/10/09 08:52:32;;;;;;;6.80;2.00;;;;;;;12.58;80.61;101898.09;104710;1299;71417;-75
2022/10/09 08:55:05;;;;;;;10.10;3.10;;;;;;;12.74;80.13;101898.93;104996;1298;60762;-74
2022/10/09 08:57:33;;;;;;;8.70;3.20;;;;;;;12.86;79.60;101893.95;104751;1297;60032;-74
2022/10/09 08:59:59;;;;;;;8.40;2.20;;;;;;;12.99;79.57;101894.27;104428;1291;75555;-73
2022/10/09 09:03:00;;;;;;;6.90;2.20;;;;;;;13.10;78.56;101895.30;104842;1299;59785;-74
2022/10/09 09:05:42;;;;;;;8.60;2.70;;;;;;;13.22;77.97;101891.98;104545;1298;72761;-74
2022/10/09 09:08:41;;;;;;;6.50;2.10;;;;;;;13.32;77.33;101886.83;104891;1299;60494;-74
2022/10/09 09:11:32;;;;;;;7.70;2.30;;;;;;;13.40;76.77;101887.91;104639;1300;60146;-74
2022/10/09 09:14:27;;;;;;;7.50;2.00;;;;;;;13.49;75.88;101886.46;104910;1299;73142;-75
2022/10/09 09:17:25;;;;;;;5.70;1.90;;;;;;;13.55;75.33;101886.14;104681;1299;69303;-73
2022/10/09 09:20:15;;;;;;;7.40;2.00;;;;;;;13.60;74.90;101885.97;104964;1305;72507;-74
2022/10/09 09:22:47;;;;;;;7.50;2.10;;;;;;;13.71;75.61;101885.61;104656;1298;61741;-74
2022/10/09 09:25:27;;;;;;;5.30;1.80;;;;;;;13.83;75.19;101877.44;104472;1298;61326;-75
2022/10/09 09:27:59;;;;;;;7.40;1.80;;;;;;;13.97;74.99;101878.60;104485;1300;74524;-73
2022/10/09 09:30:41;;;;;;;8.90;2.40;;;;;;;14.06;74.11;101877.21;104920;1299;69730;-73
2022/10/09 09:33:39;;;;;;;7.90;1.90;;;;;;;14.19;74.23;101877.30;104660;1298;73308;-73
2022/10/09 09:36:19;;;;;;;6.50;1.80;;;;;;;14.33;73.21;101873.56;104559;1290;59406;-72
2022/10/09 09:38:47;;;;;;;16.80;10.20;;;;;;;14.42;73.06;101875.38;104798;1299;61283;-72
2022/10/09 09:41:34;;;;;;;8.50;1.90;;;;;;;14.56;71.52;101873.52;104835;1300;75783;-72
2022/10/09 09:44:00;;;;;;;6.20;2.00;;;;;;;14.62;71.16;101875.73;104473;1298;60537;-72
2022/10/09 09:46:29;;;;;;;6.50;2.10;;;;;;;14.66;71.83;101874.27;104613;1298;61336;-72
2022/10/09 09:48:55;;;;;;;5.30;1.80;;;;;;;14.77;71.98;101873.80;104460;1305;61289;-73
2022/10/09 09:51:28;;;;;;;8.90;2.30;;;;;;;14.87;71.73;101871.09;105034;1298;60448;-74
2022/10/09 09:54:03;;;;;;;9.30;2.00;;;;;;;14.95;71.56;101872.13;104778;1298;72920;-73
2022/10/09 09:56:36;;;;;;;8.40;2.00;;;;;;;15.02;69.83;101864.58;104874;1299;70248;-73
2022/10/09 09:59:36;;;;;;;5.20;1.90;;;;;;;15.06;70.22;101863.80;104870;1295;74478;-73
2022/10/09 10:02:24;;;;;;;6.00;2.00;;;;;;;15.19;70.65;101862.94;104836;1298;60847;-74
2022/10/09 10:04:53;;;;;;;5.40;1.60;;;;;;;15.32;68.18;101854.19;104859;1298;59534;-74
2022/10/09 10:07:31;;;;;;;5.00;1.40;;;;;;;15.36;68.17;101851.65;104714;1290;74448;-74
2022/10/09 10:10:19;;;;;;;6.80;2.00;;;;;;;15.46;67.27;101847.10;104938;1305;71230;-74
2022/10/09 10:12:51;;;;;;;5.60;1.50;;;;;;;15.60;68.24;101844.45;104621;1299;73812;-74
2022/10/09 10:15:29;;;;;;;8.10;1.90;;;;;;;15.76;68.45;101838.08;104933;1304;60818;-73
2022/10/09 10:18:03;;;;;;;6.90;2.00;;;;;;;15.87;67.13;101833.40;104743;1282;59524;-73
2022/10/09 10:20:40;;;;;;;7.00;1.70;;;;;;;15.98;66.85;101832.20;104923;1298;73193;-72
2022/10/09 10:23:33;;;;;;;8.60;1.90;;;;;;;16.04;65.84;101835.74;104372;1297;71907;-73
2022/10/09 10:26:38;;;;;;;6.40;1.70;;;;;;;16.19;66.53;101831.64;104890;1298;71975;-72
2022/10/09 10:29:24;;;;;;;6.90;2.10;;;;;;;16.31;65.51;101825.68;104679;1298;61551;-72
2022/10/09 10:32:36;;;;;;;5.00;1.30;;;;;;;16.38;63.21;101829.48;104954;1305;59549;-72
2022/10/09 10:35:13;;;;;;;8.70;1.90;;;;;;;16.38;62.58;101826.80;104715;1282;73052;-72
2022/10/09 10:37:48;;;;;;;6.00;1.40;;;;;;;16.41;63.03;101821.32;104494;1305;71008;-72
2022/10/09 10:40:21;;;;;;;5.60;1.60;;;;;;;16.55;63.54;101819.04;104707;1299;71504;-72
2022/10/09 10:43:02;;;;;;;8.30;1.60;;;;;;;16.71;62.72;101818.40;104740;1299;60554;-73
2022/10/09 10:45:51;;;;;;;7.60;1.60;;;;;;;16.78;60.44;101816.54;105022;1299;59441;-73
2022/10/09 10:48:25;;;;;;;4.70;1.40;;;;;;;16.70;60.45;101815.66;104951;1288;74228;-72
2022/10/09 10:51:26;;;;;;;6.10;1.50;;;;;;;16.70;60.58;101807.77;104595;1299;70056;-74
2022/10/09 10:54:15;;;;;;;5.60;1.50;;;;;;;16.82;61.26;101801.36;104502;1294;70916;-74
2022/10/09 10:56:47;;;;;;;6.30;1.30;;;;;;;16.87;60.41;101798.20;104642;1292;61307;-73
2022/10/09 10:59:48;;;;;;;4.20;1.20;;;;;;;16.98;61.09;101791.68;104775;1292;59078;-74
2022/10/09 11:02:39;;;;;;;5.10;1.70;;;;;;;17.10;60.04;101785.13;104967;1298;74600;-75
2022/10/09 11:05:26;;;;;;;7.00;1.40;;;;;;;17.14;59.55;101788.41;104993;1296;70376;-74
2022/10/09 11:08:08;;;;;;;6.80;1.60;;;;;;;17.25;58.48;101783.85;104918;1298;73239;-74
2022/10/09 11:10:58;;;;;;;5.10;1.20;;;;;;;17.28;56.84;101778.60;105064;1296;59694;-74
2022/10/09 11:13:28;;;;;;;4.90;1.10;;;;;;;17.29;56.72;101777.26;105068;1299;59925;-75
2022/10/09 11:16:10;;;;;;;8.50;1.40;;;;;;;17.28;57.33;101771.81;105070;1291;72864;-74
2022/10/09 11:19:02;;;;;;;5.40;1.10;;;;;;;17.33;57.17;101772.54;105111;1298;70457;-73
2022/10/09 11:21:50;;;;;;;3.80;1.20;;;;;;;17.51;56.76;101764.44;104962;1305;72453;-74
2022/10/09 11:24:46;;;;;;;6.30;1.50;;;;;;;17.64;55.16;101761.89;105062;1297;59004;-73
2022/10/09 11:27:28;;;;;;;5.40;1.30;;;;;;;17.97;56.74;101757.78;104968;1306;60621;-72
2022/10/09 11:29:59;;;;;;;5.10;1.20;;;;;;;18.16;53.39;101757.31;105035;1298;72562;-72
2022/10/09 11:32:26;;;;;;;5.40;1.20;;;;;;;18.23;51.96;101753.86;104986;1297;69900;-72
2022/10/09 11:35:19;;;;;;;4.30;0.90;;;;;;;18.18;51.20;101750.34;105053;1298;72994;-72
2022/10/09 11:37:55;;;;;;;8.30;1.30;;;;;;;18.23;51.98;101748.38;105021;1299;59503;-72
2022/10/09 11:40:48;;;;;;;8.70;1.30;;;;;;;18.64;52.11;101744.73;105006;1296;59045;-72
2022/10/09 11:43:23;;;;;;;7.50;1.10;;;;;;;18.83;50.13;101737.96;104979;1297;74483;-73
2022/10/09 11:46:11;;;;;;;5.10;1.20;;;;;;;19.22;49.10;101732.75;105033;1289;69456;-73